Time;durP1;ratioP1;P1;durP2;ratioP2;P2;SDS_P1;SDS_P2;PMS_P1;PMS_P2;Temp;Humidity;BMP_temperature;BMP_pressure;BME280_temperature;BME280_humidity;BME280_pressure;Samples;Min_cycle;Max_cycle;Signal;HPM_P1;HPM_P2
2023/11/15 00:00:57;;;;;;;2.13;1.13;;;14.50;99.90;;;14.76;64.75;100395.81;4881179;28;121167;-49
2023/11/15 00:03:22;;;;;;;6.63;1.60;;;14.60;99.90;;;14.72;64.86;100395.13;4874626;28;106257;-49
2023/11/15 00:05:48;;;;;;;6.27;1.63;;;14.70;99.90;;;14.74;65.18;100393.22;4870313;28;100786;-50
2023/11/15 00:08:14;;;;;;;5.90;1.90;;;14.70;99.90;;;14.65;65.82;100398.22;4874518;28;98116;-51
2023/11/15 00:10:41;;;;;;;2.97;1.50;;;14.60;99.90;;;14.72;65.09;100407.53;4872636;28;103304;-50
2023/11/15 00:13:08;;;;;;;4.50;1.53;;;14.60;99.90;;;14.87;63.86;100394.25;4881479;28;97881;-47
2023/11/15 00:15:34;;;;;;;5.33;1.90;;;14.90;99.90;;;14.94;63.89;100410.69;4885450;28;97347;-53
2023/11/15 00:18:04;;;;;;;5.30;1.57;;;14.90;99.90;;;14.74;64.79;100413.59;4890132;28;97408;-50
2023/11/15 00:20:34;;;;;;;5.40;1.70;;;14.80;99.90;;;14.72;65.17;100418.16;4877548;28;97789;-48
2023/11/15 00:23:01;;;;;;;3.57;1.77;;;14.70;99.90;;;14.75;64.50;100420.63;4880285;28;97760;-46
2023/11/15 00:25:28;;;;;;;3.93;1.60;;;14.80;99.90;;;14.80;64.76;100424.75;4883739;28;97234;-45
2023/11/15 00:27:57;;;;;;;8.03;1.83;;;14.80;99.90;;;14.73;64.58;100427.84;4863674;28;98087;-45
2023/11/15 00:30:23;;;;;;;7.47;2.03;;;14.80;99.90;;;14.81;64.62;100430.91;4860204;28;97976;-47
2023/11/15 00:32:50;;;;;;;6.27;1.93;;;14.80;99.90;;;15.05;63.44;100440.16;4880664;28;102182;-49
2023/11/15 00:35:16;;;;;;;1.70;1.40;;;15.00;99.90;;;15.15;63.23;100441.31;4870046;28;99402;-47
2023/11/15 00:37:42;;;;;;;4.43;1.47;;;15.10;99.90;;;15.03;63.57;100444.66;4880585;28;97846;-47
2023/11/15 00:40:14;;;;;;;3.10;1.53;;;15.00;99.90;;;15.17;62.53;100450.03;4879711;28;97677;-46
2023/11/15 00:42:41;;;;;;;4.00;1.97;;;15.10;99.90;;;15.26;62.17;100442.50;4877293;28;101619;-46
2023/11/15 00:45:08;;;;;;;2.70;1.67;;;15.20;99.90;;;15.37;62.48;100450.72;4880654;28;98135;-46
2023/11/15 00:47:35;;;;;;;5.27;1.83;;;15.30;99.90;;;15.42;62.11;100457.44;4881330;28;99421;-48
2023/11/15 00:50:03;;;;;;;4.73;1.57;;;15.40;99.90;;;15.45;62.19;100461.72;4877938;28;97577;-45
2023/11/15 00:52:30;;;;;;;2.90;1.83;;;15.40;99.90;;;15.58;61.71;100465.38;4883900;28;97500;-47
2023/11/15 00:54:56;;;;;;;8.07;1.80;;;15.50;99.90;;;15.74;60.65;100468.84;4881804;28;97787;-47
2023/11/15 00:57:22;;;;;;;4.47;1.27;;;15.80;99.90;;;15.70;61.04;100470.00;4882947;28;114183;-47
2023/11/15 00:59:53;;;;;;;8.87;1.63;;;15.70;99.90;;;15.49;61.41;100471.25;4883521;28;97685;-50
2023/11/15 01:02:27;;;;;;;8.20;1.80;;;15.50;99.90;;;15.28;62.40;100488.44;4882839;28;99794;-51
2023/11/15 01:04:53;;;;;;;1.57;0.93;;;15.20;99.90;;;15.15;63.10;100482.97;4880491;28;98054;-51
2023/11/15 01:07:19;;;;;;;5.50;1.57;;;15.10;99.90;;;15.08;63.50;100482.47;4886467;28;97486;-51
2023/11/15 01:09:45;;;;;;;5.97;1.43;;;15.00;99.90;;;15.20;62.03;100490.69;4881030;28;97629;-50
2023/11/15 01:12:11;;;;;;;5.77;1.77;;;15.20;99.90;;;15.30;62.46;100494.50;4884726;28;97429;-49
2023/11/15 01:14:37;;;;;;;5.87;1.90;;;15.30;99.90;;;15.35;61.75;100505.75;4879152;28;98070;-51
2023/11/15 01:17:04;;;;;;;4.53;1.13;;;15.30;99.90;;;15.52;61.59;100496.78;4874745;28;99210;-50
2023/11/15 01:19:30;;;;;;;3.13;1.17;;;15.40;99.90;;;15.60;61.16;100498.06;4875373;28;98649;-47
2023/11/15 01:21:57;;;;;;;6.93;1.60;;;15.60;99.90;;;15.51;61.49;100505.72;4874010;28;97363;-50
2023/11/15 01:24:27;;;;;;;6.47;1.50;;;15.50;99.90;;;15.50;61.72;100520.81;4908586;28;96649;-51
2023/11/15 01:26:53;;;;;;;4.67;1.40;;;15.50;99.90;;;15.44;62.12;100515.84;4902257;28;97520;-48
2023/11/15 01:29:19;;;;;;;3.60;1.27;;;15.30;99.90;;;15.29;62.62;100520.22;4905319;28;97542;-49
2023/11/15 01:31:44;;;;;;;2.00;1.10;;;15.20;99.90;;;15.36;62.29;100534.03;4899197;28;97046;-47
2023/11/15 01:34:10;;;;;;;2.87;1.33;;;15.30;99.90;;;15.17;62.98;100519.13;4882869;28;97765;-50
2023/11/15 01:36:36;;;;;;;3.50;1.53;;;15.10;99.90;;;15.15;63.27;100531.63;4896891;28;97239;-48
2023/11/15 01:39:04;;;;;;;5.33;1.83;;;15.10;99.90;;;15.33;62.45;100523.56;4894156;28;105077;-52
2023/11/15 01:41:30;;;;;;;6.03;1.30;;;15.30;99.90;;;15.40;61.69;100538.22;4904905;28;104790;-47
2023/11/15 01:43:55;;;;;;;2.07;1.30;;;15.30;99.90;;;15.57;61.09;100553.19;4883341;28;100372;-48
2023/11/15 01:46:21;;;;;;;4.43;1.80;;;15.50;99.90;;;15.68;61.16;100549.00;4898833;28;98302;-49
2023/11/15 01:48:47;;;;;;;7.47;1.40;;;15.60;99.90;;;15.75;61.36;100558.31;5323483;22;99959;-41
2023/11/15 01:51:14;;;;;;;4.03;1.23;;;15.70;99.90;;;15.70;61.28;100565.72;4956481;28;105736;-42
2023/11/15 01:53:40;;;;;;;4.67;1.33;;;15.60;99.90;;;15.65;61.08;100564.28;4957903;28;97318;-43
2023/11/15 01:56:08;;;;;;;4.93;1.43;;;15.60;99.90;;;15.62;60.96;100570.66;4948814;28;97701;-42
2023/11/15 01:58:34;;;;;;;5.60;1.50;;;15.60;99.90;;;15.71;60.94;100567.44;4941047;28;105585;-43
2023/11/15 02:01:02;;;;;;;2.60;1.20;;;15.60;99.90;;;15.79;60.61;100568.81;4937363;28;97612;-42
2023/11/15 02:03:29;;;;;;;7.00;1.20;;;15.70;99.90;;;15.77;59.84;100576.88;4948631;28;97874;-42
2023/11/15 02:05:55;;;;;;;3.00;1.03;;;15.80;99.90;;;15.85;60.63;100582.59;4950600;28;108919;-43
2023/11/15 02:08:21;;;;;;;4.13;1.27;;;15.80;99.90;;;15.96;59.97;100576.66;4946681;28;97558;-43
2023/11/15 02:10:47;;;;;;;5.30;1.00;;;15.90;99.90;;;16.03;59.39;100581.50;4937815;28;111919;-43
2023/11/15 02:13:31;;;;;;;3.23;0.93;;;16.00;99.90;;;16.02;59.68;100577.13;4938705;28;97168;-44
2023/11/15 02:15:57;;;;;;;2.57;0.80;;;16.00;99.90;;;16.08;59.45;100581.25;4920028;28;98293;-45
2023/11/15 02:18:23;;;;;;;5.27;1.33;;;16.10;99.90;;;15.95;60.30;100588.22;4954274;28;98170;-42
2023/11/15 02:20:50;;;;;;;2.30;1.20;;;15.90;99.90;;;15.97;59.97;100586.34;4950940;28;101255;-44
2023/11/15 02:23:23;;;;;;;5.27;1.60;;;15.90;99.90;;;16.02;59.82;100601.06;4958407;28;97889;-46
2023/11/15 02:25:51;;;;;;;2.90;1.10;;;16.00;99.90;;;16.06;58.77;100604.44;4938656;28;97560;-42
2023/11/15 02:28:17;;;;;;;5.30;1.23;;;16.10;99.90;;;16.04;59.00;100606.28;4947842;28;98018;-44
2023/11/15 02:30:43;;;;;;;4.53;1.20;;;16.00;99.90;;;15.99;59.69;100608.38;4953864;28;103162;-43
2023/11/15 02:33:08;;;;;;;3.77;1.50;;;16.00;99.90;;;15.91;60.15;100610.63;4930034;28;105898;-44
2023/11/15 02:35:34;;;;;;;6.47;1.63;;;15.90;99.90;;;15.72;60.93;100606.38;4942636;28;115550;-42
2023/11/15 02:38:00;;;;;;;7.00;1.50;;;15.70;99.90;;;15.59;61.33;100621.31;4950740;28;97638;-44
2023/11/15 02:40:26;;;;;;;2.63;1.40;;;15.60;99.90;;;15.67;60.62;100613.78;4953058;28;98201;-42
2023/11/15 02:42:52;;;;;;;4.67;1.43;;;15.70;99.90;;;15.70;60.87;100613.59;4945491;28;97686;-43
2023/11/15 02:45:18;;;;;;;3.00;1.30;;;15.70;99.90;;;15.84;60.37;100615.44;4951817;28;97659;-47
2023/11/15 02:47:44;;;;;;;8.47;1.63;;;15.80;99.90;;;15.87;60.08;100617.06;4933320;28;98030;-43
2023/11/15 02:50:10;;;;;;;1.53;0.80;;;15.80;99.90;;;15.90;60.02;100622.22;4949401;28;97184;-45
2023/11/15 02:52:36;;;;;;;3.00;1.13;;;15.90;99.90;;;15.87;59.73;100620.59;4949857;28;97664;-43
2023/11/15 02:55:03;;;;;;;3.83;1.10;;;15.90;99.90;;;15.96;59.87;100628.03;4951177;28;98515;-44
2023/11/15 02:57:29;;;;;;;3.63;1.43;;;16.00;99.90;;;15.99;58.37;100637.66;4942500;28;98572;-43
2023/11/15 02:59:55;;;;;;;2.23;0.97;;;16.10;99.90;;;15.98;60.11;100639.44;4952201;28;100454;-45
2023/11/15 03:02:21;;;;;;;6.63;1.70;;;16.00;99.90;;;16.02;59.29;100645.44;4953046;28;110726;-45
2023/11/15 03:04:48;;;;;;;6.90;1.40;;;16.00;99.90;;;16.09;59.15;100641.50;4957588;28;97162;-42
2023/11/15 03:07:14;;;;;;;3.30;0.93;;;16.10;99.90;;;16.11;59.59;100644.91;4957146;28;97307;-43
2023/11/15 03:09:40;;;;;;;5.70;1.80;;;16.10;99.90;;;16.02;59.21;100650.75;4955075;28;117644;-47
2023/11/15 03:12:06;;;;;;;1.90;1.07;;;16.00;99.90;;;16.05;59.59;100650.56;4927468;28;97353;-44
2023/11/15 03:14:32;;;;;;;2.33;0.87;;;16.00;99.90;;;16.10;59.63;100648.53;4955850;28;97887;-44
2023/11/15 03:17:14;;;;;;;3.03;1.10;;;16.00;99.90;;;16.04;59.35;100654.19;4956224;28;97897;-44
2023/11/15 03:19:40;;;;;;;3.47;1.00;;;16.00;99.90;;;16.13;59.45;100651.00;4948392;28;102703;-43
2023/11/15 03:22:05;;;;;;;5.87;1.17;;;16.10;99.90;;;16.10;58.99;100655.66;4944450;28;97583;-43
2023/11/15 03:24:31;;;;;;;4.20;1.30;;;16.10;99.90;;;16.10;58.78;100669.81;4953694;28;114698;-43
2023/11/15 03:26:57;;;;;;;7.43;1.57;;;16.10;99.90;;;16.17;59.20;100671.16;4961346;28;111733;-45
2023/11/15 03:29:23;;;;;;;2.07;0.70;;;16.20;99.90;;;16.12;58.68;100667.91;4957860;28;110964;-43
2023/11/15 03:31:48;;;;;;;4.03;1.07;;;16.20;99.90;;;16.03;57.69;100679.06;4953711;28;97902;-45
2023/11/15 03:34:14;;;;;;;4.03;1.17;;;16.10;99.90;;;15.91;59.98;100674.47;4960081;28;97771;-44
2023/11/15 03:36:41;;;;;;;3.40;1.40;;;15.90;99.90;;;15.63;59.62;100676.06;4947606;28;116090;-43
2023/11/15 03:39:10;;;;;;;3.73;1.20;;;15.70;99.90;;;15.72;59.49;100683.50;4957655;28;97328;-44
2023/11/15 03:41:35;;;;;;;4.00;1.47;;;15.70;99.90;;;15.76;59.26;100682.38;4956083;28;97717;-44
2023/11/15 03:44:02;;;;;;;4.33;1.37;;;15.80;99.90;;;15.69;60.35;100681.00;4949912;28;97107;-44
2023/11/15 03:46:27;;;;;;;1.30;0.67;;;15.70;99.90;;;15.70;60.63;100688.03;4950416;28;97352;-47
2023/11/15 03:48:53;;;;;;;2.23;1.10;;;15.70;99.90;;;15.69;60.29;100686.34;4924521;28;129250;-42
2023/11/15 03:51:19;;;;;;;3.77;1.03;;;15.70;99.90;;;15.78;59.80;100695.59;4954486;28;97035;-49
2023/11/15 03:53:45;;;;;;;6.07;1.33;;;15.80;99.90;;;15.83;59.05;100687.34;4958922;28;103940;-42
2023/11/15 03:56:10;;;;;;;3.17;0.90;;;15.80;99.90;;;15.86;59.46;100695.16;4956327;28;112498;-42
2023/11/15 03:58:37;;;;;;;4.17;1.17;;;15.90;99.90;;;15.68;59.82;100695.25;4952694;28;107589;-44
2023/11/15 04:01:04;;;;;;;4.73;1.43;;;15.70;99.90;;;15.76;60.37;100703.63;4953215;28;100508;-43
2023/11/15 04:03:30;;;;;;;5.53;1.00;;;15.80;99.90;;;15.79;58.67;100696.47;4947611;28;97650;-45
2023/11/15 04:05:56;;;;;;;1.80;0.73;;;15.80;99.90;;;15.72;59.50;100699.44;4949405;28;114696;-44
2023/11/15 04:08:22;;;;;;;1.77;1.23;;;15.80;99.90;;;15.67;59.69;100713.97;4956950;28;97853;-43
2023/11/15 04:10:48;;;;;;;4.63;1.00;;;15.80;99.90;;;15.61;60.27;100716.94;4949150;28;97641;-43
2023/11/15 04:13:14;;;;;;;2.73;1.37;;;15.70;99.90;;;15.62;60.39;100716.88;4948758;28;97479;-45
2023/11/15 04:15:40;;;;;;;1.43;1.00;;;15.60;99.90;;;15.51;60.92;100713.91;4952584;28;97587;-42
2023/11/15 04:18:06;;;;;;;3.83;1.00;;;15.50;99.90;;;15.42;60.70;100730.34;4949493;28;97342;-42
2023/11/15 04:20:32;;;;;;;8.73;1.40;;;15.40;99.90;;;15.40;60.20;100726.94;4956268;28;108156;-44
2023/11/15 04:22:58;;;;;;;4.83;1.30;;;15.40;99.90;;;15.44;61.16;100725.81;4944489;28;98913;-44
2023/11/15 04:25:24;;;;;;;3.40;1.03;;;15.50;99.90;;;15.61;60.75;100733.75;4954467;28;98308;-42
2023/11/15 04:27:51;;;;;;;4.20;0.90;;;15.60;99.90;;;15.54;60.59;100734.16;4950410;28;99593;-43
2023/11/15 04:30:17;;;;;;;3.13;1.40;;;15.60;99.90;;;15.48;60.29;100746.00;4936984;28;100632;-42
2023/11/15 04:32:45;;;;;;;5.23;1.30;;;15.50;99.90;;;15.27;61.70;100745.34;4932478;28;97759;-45
2023/11/15 04:35:11;;;;;;;3.83;1.13;;;15.30;99.90;;;15.13;62.24;100740.75;4945861;28;98830;-43
2023/11/15 04:37:38;;;;;;;3.60;1.20;;;15.20;99.90;;;15.16;62.00;100753.00;4952120;28;97452;-43
2023/11/15 04:40:09;;;;;;;4.50;1.43;;;15.20;99.90;;;15.04;62.61;100751.00;4947148;28;97839;-43
2023/11/15 04:42:34;;;;;;;2.23;1.30;;;15.00;99.90;;;15.15;61.81;100749.50;4955179;28;98189;-43
2023/11/15 04:45:01;;;;;;;3.77;1.33;;;15.20;99.90;;;15.04;62.29;100751.84;4933889;28;97579;-43
2023/11/15 04:47:27;;;;;;;2.40;1.40;;;15.00;99.90;;;15.20;62.49;100751.06;4928590;28;99584;-44
2023/11/15 04:49:53;;;;;;;1.77;0.93;;;15.10;99.90;;;15.25;61.78;100759.66;4949520;28;97411;-45
2023/11/15 04:52:19;;;;;;;3.70;0.97;;;15.20;99.90;;;15.38;61.75;100745.63;4949437;28;97100;-42
2023/11/15 04:54:44;;;;;;;4.17;1.30;;;15.30;99.90;;;15.52;61.17;100747.53;4945998;28;102384;-45
2023/11/15 04:57:10;;;;;;;2.77;1.17;;;15.50;99.90;;;15.53;61.04;100751.06;4933735;28;105286;-42
2023/11/15 04:59:37;;;;;;;2.77;0.90;;;15.50;99.90;;;15.63;60.30;100749.66;4951009;28;96892;-42
2023/11/15 05:02:03;;;;;;;5.00;1.30;;;15.60;99.90;;;15.66;59.06;100762.75;4949717;28;97648;-43
2023/11/15 05:04:29;;;;;;;1.73;0.80;;;15.70;99.90;;;15.68;60.27;100759.06;4944238;28;98671;-42
2023/11/15 05:06:55;;;;;;;2.53;0.87;;;15.60;99.90;;;15.70;60.19;100767.81;4945658;28;97540;-42
2023/11/15 05:09:23;;;;;;;5.33;1.10;;;15.60;99.90;;;15.74;59.03;100774.69;4942082;28;97573;-44
2023/11/15 05:11:49;;;;;;;4.63;2.03;;;15.70;99.90;;;15.84;59.67;100769.72;4955951;28;99150;-45
2023/11/15 05:14:15;;;;;;;3.30;0.87;;;15.80;99.90;;;15.90;59.72;100774.69;4962726;28;99308;-42
2023/11/15 05:16:41;;;;;;;5.53;0.90;;;15.90;99.90;;;15.82;58.42;100771.59;4957022;28;97792;-44
2023/11/15 05:19:07;;;;;;;3.63;0.90;;;15.80;99.90;;;15.65;60.00;100775.19;4953776;28;97754;-44
2023/11/15 05:21:32;;;;;;;7.27;1.50;;;15.60;99.90;;;15.64;59.86;100773.50;4944598;28;108609;-41
2023/11/15 05:23:59;;;;;;;2.70;1.07;;;15.60;99.90;;;15.70;59.81;100775.78;4963960;28;97578;-43
2023/11/15 05:26:25;;;;;;;2.03;1.30;;;15.70;99.90;;;15.77;60.04;100779.84;4954909;28;106804;-42
2023/11/15 05:28:51;;;;;;;4.70;1.23;;;15.80;99.90;;;15.74;58.78;100785.31;4942400;28;97536;-42
2023/11/15 05:31:17;;;;;;;5.33;1.30;;;15.80;99.90;;;15.72;59.83;100786.34;4951810;28;97555;-44
2023/11/15 05:33:43;;;;;;;3.03;1.00;;;15.70;99.90;;;15.74;60.38;100785.31;4955214;28;97691;-43
2023/11/15 05:36:09;;;;;;;3.27;1.00;;;15.70;99.90;;;15.72;59.28;100787.19;4951896;28;97623;-43
2023/11/15 05:38:38;;;;;;;6.60;1.37;;;15.70;99.90;;;15.62;59.76;100788.66;4960298;28;97249;-42
2023/11/15 05:41:05;;;;;;;9.13;1.77;;;15.60;99.90;;;15.69;59.98;100786.53;4958397;28;97367;-43
2023/11/15 05:43:31;;;;;;;2.60;1.33;;;15.70;99.90;;;15.76;59.08;100791.41;4961295;28;97757;-43
2023/11/15 05:45:57;;;;;;;4.07;1.27;;;15.80;99.90;;;15.68;59.85;100796.31;4953746;28;98615;-41
2023/11/15 05:48:23;;;;;;;7.20;1.77;;;15.60;99.90;;;15.68;60.25;100796.31;4958765;28;109547;-42
2023/11/15 05:50:49;;;;;;;4.60;1.37;;;15.60;99.90;;;15.66;59.98;100798.19;4955918;28;110891;-43
2023/11/15 05:53:16;;;;;;;5.83;1.20;;;15.60;99.90;;;15.56;59.48;100796.94;4955557;28;97411;-42
2023/11/15 05:55:42;;;;;;;4.07;0.90;;;15.60;99.90;;;15.28;60.26;100802.00;4952929;28;98997;-42
2023/11/15 05:58:09;;;;;;;6.07;1.30;;;15.30;99.90;;;15.26;60.04;100814.50;4958318;28;97674;-44
2023/11/15 06:00:35;;;;;;;4.87;1.23;;;15.20;99.90;;;15.02;61.01;100806.88;4930227;28;97820;-43
2023/11/15 06:03:01;;;;;;;5.87;1.33;;;15.00;99.90;;;15.24;61.70;100816.41;4963392;28;97769;-41
2023/11/15 06:05:29;;;;;;;5.03;0.80;;;15.10;99.90;;;15.13;61.30;100820.47;4951551;28;98607;-43
2023/11/15 06:07:55;;;;;;;4.03;1.10;;;15.10;99.90;;;15.40;60.44;100812.84;4961551;28;97625;-42
2023/11/15 06:10:20;;;;;;;7.90;1.20;;;15.40;99.90;;;15.42;59.69;100810.09;4954101;28;97507;-42
2023/11/15 06:12:46;;;;;;;3.40;1.27;;;15.50;99.90;;;15.50;59.88;100815.88;4962905;28;120016;-41
2023/11/15 06:15:12;;;;;;;2.30;1.03;;;15.50;99.90;;;15.53;59.01;100813.06;4957711;28;97449;-41
2023/11/15 06:17:39;;;;;;;3.37;1.00;;;15.60;99.90;;;15.61;60.49;100816.16;4955242;28;97905;-42
2023/11/15 06:20:08;;;;;;;2.37;1.07;;;15.50;99.90;;;15.68;60.12;100817.56;4937753;28;97467;-41
2023/11/15 06:22:34;;;;;;;5.60;1.13;;;15.60;99.90;;;15.76;59.51;100820.66;4958083;28;98101;-42
2023/11/15 06:24:59;;;;;;;6.13;1.23;;;15.80;99.90;;;15.80;59.73;100826.69;4955249;28;98633;-41
2023/11/15 06:27:25;;;;;;;2.60;1.30;;;15.80;99.90;;;15.82;59.95;100823.94;4946676;28;103688;-45
2023/11/15 06:29:51;;;;;;;2.70;0.83;;;15.80;99.90;;;15.90;58.29;100837.66;4932943;28;97347;-44
2023/11/15 06:32:17;;;;;;;10.20;1.03;;;15.90;99.90;;;15.91;58.82;100839.38;4944481;28;98067;-41
2023/11/15 06:34:44;;;;;;;3.77;0.93;;;15.90;99.90;;;15.97;59.09;100833.75;4953548;28;97279;-43
2023/11/15 06:37:12;;;;;;;8.20;1.47;;;15.90;99.90;;;16.00;58.74;100833.56;4953533;28;98398;-43
2023/11/15 06:39:40;;;;;;;2.53;1.00;;;16.00;99.90;;;15.83;59.04;100844.28;4944850;28;97696;-41
2023/11/15 06:42:06;;;;;;;2.37;1.17;;;15.90;99.90;;;15.79;59.40;100834.75;4947614;28;97488;-42
2023/11/15 06:44:31;;;;;;;7.70;1.50;;;15.80;99.90;;;15.84;59.46;100843.34;4953109;28;98081;-41
2023/11/15 06:46:59;;;;;;;2.90;1.20;;;15.80;99.90;;;15.72;59.70;100840.38;4954640;28;104862;-43
2023/11/15 06:49:24;;;;;;;5.17;1.43;;;15.70;99.90;;;15.79;58.81;100845.41;4947365;28;99938;-43
2023/11/15 06:51:51;;;;;;;3.20;1.00;;;15.80;99.90;;;15.76;58.74;100838.41;4948712;28;118877;-41
2023/11/15 06:54:17;;;;;;;4.40;1.00;;;15.70;99.90;;;15.92;59.26;100843.78;4952849;28;100187;-43
2023/11/15 06:56:48;;;;;;;3.97;1.20;;;15.90;99.90;;;15.97;59.09;100839.06;4948637;28;101194;-42
2023/11/15 06:59:15;;;;;;;2.10;1.10;;;16.00;99.90;;;15.97;58.71;100841.72;4950901;28;98110;-43
2023/11/15 07:01:41;;;;;;;3.00;1.10;;;16.00;99.90;;;16.02;57.96;100847.63;4942661;28;97678;-42
2023/11/15 07:04:07;;;;;;;3.53;1.17;;;16.10;99.90;;;16.01;59.12;100852.09;4951764;28;97509;-43
2023/11/15 07:06:33;;;;;;;3.00;1.00;;;16.00;99.90;;;16.10;58.59;100856.06;4946213;28;97795;-41
2023/11/15 07:08:59;;;;;;;4.20;1.20;;;16.10;99.90;;;16.01;59.03;100853.91;4948212;28;98082;-44
2023/11/15 07:11:28;;;;;;;6.10;1.30;;;16.00;99.90;;;16.00;58.83;100861.03;4954384;28;100437;-40
2023/11/15 07:13:55;;;;;;;5.73;1.23;;;16.00;99.90;;;15.92;58.33;100867.72;4957435;28;117023;-43
2023/11/15 07:16:21;;;;;;;2.37;1.10;;;16.00;99.90;;;15.97;58.76;100873.66;4948499;28;97528;-42
2023/11/15 07:18:48;;;;;;;6.30;0.90;;;16.00;99.90;;;15.94;58.18;100877.34;4944955;28;97764;-41
2023/11/15 07:21:13;;;;;;;4.70;0.80;;;16.00;99.90;;;16.05;57.30;100879.38;4938928;28;97800;-41
2023/11/15 07:23:42;;;;;;;7.50;1.53;;;16.10;99.90;;;16.03;58.05;100891.94;4939577;28;115535;-42
2023/11/15 07:26:10;;;;;;;3.87;1.30;;;16.10;99.90;;;16.03;57.85;100891.94;4943933;28;97766;-41
2023/11/15 07:28:41;;;;;;;2.90;1.17;;;16.10;99.90;;;16.11;58.44;100900.38;4948152;28;96913;-43
2023/11/15 07:31:11;;;;;;;3.90;1.20;;;16.10;99.90;;;16.01;57.07;100909.78;4935342;28;98812;-42
2023/11/15 07:33:37;;;;;;;3.73;1.00;;;16.10;99.90;;;16.03;58.57;100914.06;4944221;28;97608;-42
2023/11/15 07:36:03;;;;;;;11.77;1.57;;;16.10;99.90;;;15.84;58.89;100917.81;4951064;28;97239;-44
2023/11/15 07:38:29;;;;;;;3.27;0.90;;;15.90;99.90;;;15.83;59.73;100922.28;4946386;28;98613;-41
2023/11/15 07:40:55;;;;;;;7.47;1.30;;;15.80;99.90;;;15.73;58.82;100913.91;4896863;28;99270;-42
2023/11/15 07:43:20;;;;;;;2.00;1.00;;;15.80;99.90;;;15.87;59.38;100917.63;4901050;28;112434;-43
2023/11/15 07:45:53;;;;;;;6.30;1.20;;;15.90;99.90;;;15.73;59.47;100921.88;4889281;28;114392;-41
2023/11/15 07:48:20;;;;;;;3.60;0.93;;;15.70;99.90;;;15.70;59.46;100931.84;4893659;28;98568;-44
2023/11/15 07:50:46;;;;;;;3.80;1.00;;;15.70;99.90;;;15.84;59.77;100926.66;4897746;28;97522;-44
2023/11/15 07:53:13;;;;;;;1.50;0.90;;;15.80;99.90;;;15.89;59.26;100932.56;4899909;28;112286;-42
2023/11/15 07:55:39;;;;;;;3.23;1.10;;;15.90;99.90;;;15.71;59.47;100933.56;4908430;28;97498;-42
2023/11/15 07:58:06;;;;;;;3.63;0.97;;;15.70;99.90;;;15.83;58.60;100937.38;4903798;28;98155;-42
2023/11/15 08:00:35;;;;;;;3.80;1.00;;;15.80;99.90;;;15.87;58.92;100946.91;4898893;28;97459;-43
2023/11/15 08:03:02;;;;;;;4.57;1.43;;;15.90;99.90;;;15.63;58.44;100952.59;4909381;28;97815;-42
2023/11/15 08:05:28;;;;;;;1.80;0.97;;;15.70;99.90;;;15.56;60.43;100940.50;4903496;28;98064;-41
2023/11/15 08:07:56;;;;;;;3.43;0.90;;;15.50;99.90;;;15.70;59.72;100948.66;4907732;28;98117;-42
2023/11/15 08:10:23;;;;;;;8.03;1.77;;;15.70;99.90;;;15.58;59.21;100946.59;4905195;28;98435;-42
2023/11/15 08:12:49;;;;;;;4.67;1.07;;;15.70;99.90;;;15.57;58.42;100955.50;4907169;28;98558;-43
2023/11/15 08:15:16;;;;;;;5.83;1.07;;;15.60;99.90;;;15.57;59.33;100955.50;4914140;28;97820;-41
2023/11/15 08:17:46;;;;;;;3.50;1.00;;;15.60;99.90;;;15.61;59.05;100967.72;4916059;28;97556;-42
2023/11/15 08:20:16;;;;;;;3.17;0.90;;;15.60;99.90;;;15.28;60.28;100966.75;4909382;28;98086;-42
2023/11/15 08:22:42;;;;;;;4.20;0.87;;;15.30;99.90;;;15.28;60.01;100967.63;4902816;28;97354;-45
2023/11/15 08:25:12;;;;;;;4.90;1.00;;;15.30;99.90;;;15.34;60.55;100975.31;4907390;28;97987;-44
2023/11/15 08:27:40;;;;;;;4.03;1.07;;;15.30;99.90;;;15.16;59.95;100978.84;4906733;28;99947;-45
2023/11/15 08:30:11;;;;;;;8.17;1.10;;;15.20;99.90;;;15.37;61.04;100968.97;4908409;28;98152;-43
2023/11/15 08:32:39;;;;;;;2.37;0.93;;;15.30;99.90;;;15.48;59.63;100980.78;4904421;28;98108;-45
2023/11/15 08:35:05;;;;;;;3.97;1.30;;;15.50;99.90;;;15.63;60.39;100983.63;4908035;28;97359;-42
2023/11/15 08:37:32;;;;;;;0.93;0.83;;;15.60;99.90;;;15.62;58.37;100988.09;4904008;28;97691;-42
2023/11/15 08:39:59;;;;;;;3.60;0.90;;;15.70;99.90;;;15.73;59.57;100990.19;4905287;28;97376;-45
2023/11/15 08:42:26;;;;;;;4.27;1.27;;;15.70;99.90;;;15.68;58.54;100986.91;4906699;28;97700;-42
2023/11/15 08:44:55;;;;;;;4.40;1.00;;;15.70;99.90;;;15.69;59.12;100994.81;4900605;28;97489;-42
2023/11/15 08:47:21;;;;;;;2.93;1.07;;;15.70;99.90;;;15.45;59.65;100996.88;4906515;28;98170;-42
2023/11/15 08:49:50;;;;;;;2.67;1.00;;;15.50;99.90;;;15.42;60.62;100996.16;4900321;28;97642;-44
2023/11/15 08:52:20;;;;;;;3.97;1.17;;;15.30;99.90;;;15.51;60.67;100990.41;4899379;28;97731;-42
2023/11/15 08:54:46;;;;;;;7.07;1.40;;;15.30;99.90;;;15.54;60.21;100987.56;4885765;28;98721;-44
2023/11/15 08:57:15;;;;;;;3.00;1.00;;;15.50;99.90;;;15.51;60.63;100990.41;4904017;28;98520;-42
2023/11/15 08:59:42;;;;;;;1.67;0.83;;;15.50;99.90;;;15.71;60.06;100987.59;4792999;28;98675;-42
2023/11/15 09:02:10;;;;;;;3.87;1.07;;;15.70;99.90;;;15.65;59.98;100989.72;4912821;28;99166;-42
2023/11/15 09:04:37;;;;;;;6.33;1.70;;;15.60;99.90;;;15.53;59.40;100999.16;4899487;28;97993;-43
2023/11/15 09:07:04;;;;;;;5.23;1.43;;;15.50;99.90;;;15.42;60.49;100998.81;4876745;28;98692;-42
2023/11/15 09:09:31;;;;;;;3.27;1.03;;;15.40;99.90;;;15.35;60.34;101010.72;4882230;28;100550;-45
2023/11/15 09:11:57;;;;;;;7.00;1.07;;;15.30;99.90;;;15.42;61.02;101012.13;4912886;28;98321;-42
2023/11/15 09:14:23;;;;;;;8.23;1.20;;;15.40;99.90;;;15.18;60.69;101016.84;4905592;28;98182;-41
2023/11/15 09:16:50;;;;;;;6.33;1.60;;;15.30;99.90;;;15.28;61.24;101014.59;4888915;28;99176;-43
2023/11/15 09:19:20;;;;;;;5.73;1.53;;;15.30;99.90;;;15.40;61.06;101022.84;4910670;28;97903;-44
2023/11/15 09:21:51;;;;;;;9.60;1.63;;;15.40;99.90;;;15.32;60.61;101027.66;4902135;28;97440;-42
2023/11/15 09:24:21;;;;;;;4.43;0.90;;;15.30;99.90;;;15.43;60.72;101024.47;4905108;28;97585;-42
2023/11/15 09:26:48;;;;;;;3.00;0.97;;;15.40;99.90;;;15.30;60.71;101034.00;4899642;28;97669;-42
2023/11/15 09:29:14;;;;;;;10.37;1.57;;;15.30;99.90;;;15.49;60.85;101029.50;4902013;28;99197;-42
2023/11/15 09:31:43;;;;;;;4.30;0.80;;;15.50;99.90;;;15.51;60.61;101026.75;4901413;28;97828;-42
2023/11/15 09:34:12;;;;;;;2.90;0.80;;;15.60;99.90;;;15.64;60.10;101027.91;4916877;28;98919;-44
2023/11/15 09:36:38;;;;;;;2.70;0.73;;;15.70;99.90;;;15.66;58.47;101028.69;4915399;28;103039;-42
2023/11/15 09:39:09;;;;;;;6.27;1.50;;;15.80;99.90;;;15.57;60.07;101043.25;4905876;28;132732;-41
2023/11/15 09:41:36;;;;;;;1.53;1.13;;;15.70;99.90;;;15.61;60.01;101028.88;4902568;28;101468;-42
2023/11/15 09:44:09;;;;;;;7.23;1.47;;;15.70;99.90;;;15.41;60.06;101037.84;4906204;28;98273;-43
2023/11/15 09:46:37;;;;;;;3.70;1.10;;;15.60;99.90;;;15.55;60.07;101047.78;4884551;28;97477;-41
2023/11/15 09:49:05;;;;;;;2.20;1.20;;;15.60;99.90;;;15.46;59.89;101045.56;4901137;28;98485;-43
2023/11/15 09:51:35;;;;;;;4.10;0.97;;;15.60;99.90;;;15.36;60.78;101052.31;4884586;28;99112;-42
2023/11/15 09:54:06;;;;;;;7.10;1.23;;;15.50;99.90;;;15.63;60.29;101048.31;4893548;28;98783;-41
2023/11/15 09:56:34;;;;;;;3.10;1.03;;;15.70;99.90;;;15.49;58.50;101048.09;4905820;28;97573;-42
2023/11/15 09:59:00;;;;;;;2.37;0.90;;;15.70;99.90;;;15.57;59.46;101037.94;4912656;28;100413;-41
2023/11/15 10:01:26;;;;;;;3.70;1.07;;;15.70;99.90;;;15.54;59.91;101039.91;4908211;28;97860;-43
2023/11/15 10:03:53;;;;;;;2.07;0.70;;;15.70;99.90;;;15.77;59.52;101050.28;4908233;28;97520;-42
2023/11/15 10:06:18;;;;;;;1.97;0.67;;;15.90;99.90;;;15.66;59.37;101040.16;4903598;28;117470;-43
2023/11/15 10:08:55;;;;;;;5.10;0.83;;;15.80;99.90;;;15.72;58.81;101046.97;4916497;28;111496;-41